sensor_id;sensor_type;location;lat;lon;timestamp;temperature;humidity
14415;DHT22;7307;50.852;4.314;2022-10-26T00:01:30;20.80;69.20
14415;DHT22;7307;50.852;4.314;2022-10-26T00:03:55;20.80;69.30
14415;DHT22;7307;50.852;4.314;2022-10-26T00:06:24;20.80;69.40
14415;DHT22;7307;50.852;4.314;2022-10-26T00:08:51;20.80;69.40
14415;DHT22;7307;50.852;4.314;2022-10-26T00:11:17;20.80;69.40
14415;DHT22;7307;50.852;4.314;2022-10-26T00:13:44;20.80;69.30
14415;DHT22;7307;50.852;4.314;2022-10-26T00:16:20;20.80;69.20
14415;DHT22;7307;50.852;4.314;2022-10-26T00:18:46;20.80;69.30
14415;DHT22;7307;50.852;4.314;2022-10-26T00:21:12;20.80;69.30
14415;DHT22;7307;50.852;4.314;2022-10-26T00:23:38;20.80;69.20
14415;DHT22;7307;50.852;4.314;2022-10-26T00:26:04;20.80;69.40
14415;DHT22;7307;50.852;4.314;2022-10-26T00:28:30;20.80;69.20
14415;DHT22;7307;50.852;4.314;2022-10-26T00:31:03;20.80;69.30
14415;DHT22;7307;50.852;4.314;2022-10-26T00:33:30;20.80;69.20
14415;DHT22;7307;50.852;4.314;2022-10-26T00:35:55;20.80;69.70
14415;DHT22;7307;50.852;4.314;2022-10-26T00:38:21;20.80;69.20
14415;DHT22;7307;50.852;4.314;2022-10-26T00:40:47;20.80;69.20
14415;DHT22;7307;50.852;4.314;2022-10-26T00:45:45;20.80;69.40
14415;DHT22;7307;50.852;4.314;2022-10-26T00:48:35;20.80;69.20
14415;DHT22;7307;50.852;4.314;2022-10-26T00:51:06;20.80;69.20
14415;DHT22;7307;50.852;4.314;2022-10-26T00:53:32;20.80;69.10
14415;DHT22;7307;50.852;4.314;2022-10-26T00:55:58;20.80;69.30
14415;DHT22;7307;50.852;4.314;2022-10-26T00:58:25;20.70;69.20
14415;DHT22;7307;50.852;4.314;2022-10-26T01:00:51;20.80;70.10
14415;DHT22;7307;50.852;4.314;2022-10-26T01:03:17;20.80;69.40
14415;DHT22;7307;50.852;4.314;2022-10-26T01:05:44;20.80;69.40
14415;DHT22;7307;50.852;4.314;2022-10-26T01:08:11;20.70;69.40
14415;DHT22;7307;50.852;4.314;2022-10-26T01:10:39;20.80;69.50
14415;DHT22;7307;50.852;4.314;2022-10-26T01:13:06;20.70;69.40
14415;DHT22;7307;50.852;4.314;2022-10-26T01:15:45;20.70;69.40
14415;DHT22;7307;50.852;4.314;2022-10-26T01:29:38;20.70;69.40
14415;DHT22;7307;50.852;4.314;2022-10-26T01:32:13;20.70;69.40
14415;DHT22;7307;50.852;4.314;2022-10-26T01:34:55;20.70;69.40
14415;DHT22;7307;50.852;4.314;2022-10-26T01:37:29;20.70;69.50
14415;DHT22;7307;50.852;4.314;2022-10-26T01:42:41;20.70;69.60
14415;DHT22;7307;50.852;4.314;2022-10-26T01:45:09;20.70;69.40
14415;DHT22;7307;50.852;4.314;2022-10-26T01:47:37;20.70;69.50
14415;DHT22;7307;50.852;4.314;2022-10-26T01:50:05;20.70;69.60
14415;DHT22;7307;50.852;4.314;2022-10-26T01:52:31;20.70;69.50
14415;DHT22;7307;50.852;4.314;2022-10-26T02:00:47;20.70;69.60
14415;DHT22;7307;50.852;4.314;2022-10-26T02:06:20;20.70;70.30
14415;DHT22;7307;50.852;4.314;2022-10-26T02:09:17;20.70;69.40
14415;DHT22;7307;50.852;4.314;2022-10-26T02:11:47;20.70;69.60
14415;DHT22;7307;50.852;4.314;2022-10-26T02:14:25;20.70;69.40
14415;DHT22;7307;50.852;4.314;2022-10-26T02:16:56;20.70;69.60
14415;DHT22;7307;50.852;4.314;2022-10-26T02:22:03;20.70;69.60
14415;DHT22;7307;50.852;4.314;2022-10-26T02:24:31;20.70;69.50
14415;DHT22;7307;50.852;4.314;2022-10-26T02:26:59;20.70;69.60
14415;DHT22;7307;50.852;4.314;2022-10-26T02:29:26;20.70;69.40
14415;DHT22;7307;50.852;4.314;2022-10-26T02:31:54;20.70;69.40
14415;DHT22;7307;50.852;4.314;2022-10-26T02:34:24;20.60;69.40
14415;DHT22;7307;50.852;4.314;2022-10-26T02:36:53;20.70;69.40
14415;DHT22;7307;50.852;4.314;2022-10-26T02:39:21;20.70;69.40
14415;DHT22;7307;50.852;4.314;2022-10-26T02:41:47;20.60;69.30
14415;DHT22;7307;50.852;4.314;2022-10-26T02:44:22;20.60;69.40
14415;DHT22;7307;50.852;4.314;2022-10-26T02:46:50;20.70;69.40
14415;DHT22;7307;50.852;4.314;2022-10-26T02:49:16;20.60;69.30
14415;DHT22;7307;50.852;4.314;2022-10-26T02:51:49;20.70;69.40
14415;DHT22;7307;50.852;4.314;2022-10-26T02:54:25;20.70;69.40
14415;DHT22;7307;50.852;4.314;2022-10-26T02:56:55;20.70;69.50
14415;DHT22;7307;50.852;4.314;2022-10-26T02:59:25;20.70;69.50
14415;DHT22;7307;50.852;4.314;2022-10-26T03:01:52;20.60;69.50
14415;DHT22;7307;50.852;4.314;2022-10-26T03:04:18;20.70;69.50
14415;DHT22;7307;50.852;4.314;2022-10-26T03:06:52;20.60;69.40
14415;DHT22;7307;50.852;4.314;2022-10-26T03:09:17;20.70;69.60
14415;DHT22;7307;50.852;4.314;2022-10-26T03:11:43;20.60;70.20
14415;DHT22;7307;50.852;4.314;2022-10-26T03:14:08;20.60;69.40
14415;DHT22;7307;50.852;4.314;2022-10-26T03:16:34;20.60;69.40
14415;DHT22;7307;50.852;4.314;2022-10-26T03:19:00;20.60;69.40
14415;DHT22;7307;50.852;4.314;2022-10-26T03:21:26;20.60;69.50
14415;DHT22;7307;50.852;4.314;2022-10-26T03:23:53;20.60;69.50
14415;DHT22;7307;50.852;4.314;2022-10-26T03:26:18;20.60;69.40
14415;DHT22;7307;50.852;4.314;2022-10-26T03:28:44;20.60;69.40
14415;DHT22;7307;50.852;4.314;2022-10-26T03:31:09;20.60;69.50
14415;DHT22;7307;50.852;4.314;2022-10-26T03:33:35;20.60;69.40
14415;DHT22;7307;50.852;4.314;2022-10-26T03:36:01;20.60;69.50
14415;DHT22;7307;50.852;4.314;2022-10-26T03:38:26;20.60;69.50
14415;DHT22;7307;50.852;4.314;2022-10-26T03:40:52;20.60;69.40
14415;DHT22;7307;50.852;4.314;2022-10-26T03:43:17;20.60;69.60
14415;DHT22;7307;50.852;4.314;2022-10-26T03:45:43;20.60;69.60
14415;DHT22;7307;50.852;4.314;2022-10-26T03:48:08;20.60;69.40
14415;DHT22;7307;50.852;4.314;2022-10-26T03:50:34;20.60;69.40
14415;DHT22;7307;50.852;4.314;2022-10-26T03:53:00;20.70;69.60
14415;DHT22;7307;50.852;4.314;2022-10-26T03:55:25;20.60;69.50
14415;DHT22;7307;50.852;4.314;2022-10-26T03:57:51;20.60;69.40
14415;DHT22;7307;50.852;4.314;2022-10-26T04:00:17;20.60;69.60
14415;DHT22;7307;50.852;4.314;2022-10-26T04:02:44;20.60;70.10
14415;DHT22;7307;50.852;4.314;2022-10-26T04:05:14;20.60;70.20
14415;DHT22;7307;50.852;4.314;2022-10-26T04:07:41;20.60;69.50
14415;DHT22;7307;50.852;4.314;2022-10-26T04:10:07;20.60;69.50
14415;DHT22;7307;50.852;4.314;2022-10-26T04:12:36;20.60;69.60
14415;DHT22;7307;50.852;4.314;2022-10-26T04:15:02;20.60;69.50
14415;DHT22;7307;50.852;4.314;2022-10-26T04:17:27;20.60;69.50
14415;DHT22;7307;50.852;4.314;2022-10-26T04:19:53;20.60;69.50
14415;DHT22;7307;50.852;4.314;2022-10-26T04:22:18;20.60;69.40
14415;DHT22;7307;50.852;4.314;2022-10-26T04:24:44;20.60;69.50
14415;DHT22;7307;50.852;4.314;2022-10-26T04:27:10;20.60;69.40
14415;DHT22;7307;50.852;4.314;2022-10-26T04:29:35;20.60;69.40
14415;DHT22;7307;50.852;4.314;2022-10-26T04:32:01;20.60;69.40
14415;DHT22;7307;50.852;4.314;2022-10-26T04:34:27;20.60;69.40
14415;DHT22;7307;50.852;4.314;2022-10-26T04:36:53;20.60;69.50
14415;DHT22;7307;50.852;4.314;2022-10-26T04:39:19;20.60;69.50
14415;DHT22;7307;50.852;4.314;2022-10-26T04:41:44;20.60;69.50
14415;DHT22;7307;50.852;4.314;2022-10-26T04:44:10;20.60;69.40
14415;DHT22;7307;50.852;4.314;2022-10-26T04:46:36;20.60;69.50
14415;DHT22;7307;50.852;4.314;2022-10-26T04:49:01;20.60;69.60
14415;DHT22;7307;50.852;4.314;2022-10-26T04:51:27;20.60;69.50
14415;DHT22;7307;50.852;4.314;2022-10-26T04:53:53;20.60;69.60
14415;DHT22;7307;50.852;4.314;2022-10-26T04:56:19;20.60;69.60
14415;DHT22;7307;50.852;4.314;2022-10-26T04:58:45;20.60;69.40
14415;DHT22;7307;50.852;4.314;2022-10-26T05:01:11;20.60;69.50
14415;DHT22;7307;50.852;4.314;2022-10-26T05:03:37;20.60;69.50
14415;DHT22;7307;50.852;4.314;2022-10-26T05:06:02;20.60;69.60
14415;DHT22;7307;50.852;4.314;2022-10-26T05:08:28;20.60;69.50
14415;DHT22;7307;50.852;4.314;2022-10-26T05:10:54;20.60;69.40
14415;DHT22;7307;50.852;4.314;2022-10-26T05:13:19;20.60;69.50
14415;DHT22;7307;50.852;4.314;2022-10-26T05:15:45;20.60;69.40
14415;DHT22;7307;50.852;4.314;2022-10-26T05:18:11;20.60;69.40
14415;DHT22;7307;50.852;4.314;2022-10-26T05:20:37;20.60;69.40
14415;DHT22;7307;50.852;4.314;2022-10-26T05:23:05;20.60;69.40
14415;DHT22;7307;50.852;4.314;2022-10-26T05:25:34;20.60;69.40
14415;DHT22;7307;50.852;4.314;2022-10-26T05:28:01;20.60;69.40
14415;DHT22;7307;50.852;4.314;2022-10-26T05:30:29;20.60;69.40
14415;DHT22;7307;50.852;4.314;2022-10-26T05:32:59;20.60;69.40
14415;DHT22;7307;50.852;4.314;2022-10-26T05:35:25;20.60;69.40
14415;DHT22;7307;50.852;4.314;2022-10-26T05:37:52;20.60;69.40
14415;DHT22;7307;50.852;4.314;2022-10-26T05:40:18;20.60;69.40
14415;DHT22;7307;50.852;4.314;2022-10-26T05:42:44;20.60;69.40
14415;DHT22;7307;50.852;4.314;2022-10-26T05:45:10;20.60;69.40
14415;DHT22;7307;50.852;4.314;2022-10-26T05:47:40;20.60;69.40
14415;DHT22;7307;50.852;4.314;2022-10-26T05:50:07;20.60;69.60
14415;DHT22;7307;50.852;4.314;2022-10-26T05:52:46;20.60;70.10
14415;DHT22;7307;50.852;4.314;2022-10-26T05:55:14;20.60;69.90
14415;DHT22;7307;50.852;4.314;2022-10-26T05:57:40;20.60;69.60
14415;DHT22;7307;50.852;4.314;2022-10-26T06:00:15;20.70;69.40
14415;DHT22;7307;50.852;4.314;2022-10-26T06:05:27;20.70;69.70
14415;DHT22;7307;50.852;4.314;2022-10-26T06:07:53;20.70;69.80
14415;DHT22;7307;50.852;4.314;2022-10-26T06:10:19;20.70;69.80
14415;DHT22;7307;50.852;4.314;2022-10-26T06:12:45;20.70;69.80
14415;DHT22;7307;50.852;4.314;2022-10-26T06:15:17;20.70;69.80
14415;DHT22;7307;50.852;4.314;2022-10-26T06:17:56;20.70;68.00
14415;DHT22;7307;50.852;4.314;2022-10-26T06:20:40;20.70;66.80
14415;DHT22;7307;50.852;4.314;2022-10-26T06:26:31;20.60;66.50
14415;DHT22;7307;50.852;4.314;2022-10-26T06:29:09;20.60;66.00
14415;DHT22;7307;50.852;4.314;2022-10-26T06:31:36;20.60;66.70
14415;DHT22;7307;50.852;4.314;2022-10-26T06:34:02;20.60;67.10
14415;DHT22;7307;50.852;4.314;2022-10-26T06:36:28;20.50;67.20
14415;DHT22;7307;50.852;4.314;2022-10-26T06:39:01;20.50;67.50
14415;DHT22;7307;50.852;4.314;2022-10-26T06:41:30;20.50;67.40
14415;DHT22;7307;50.852;4.314;2022-10-26T06:43:56;20.50;67.50
14415;DHT22;7307;50.852;4.314;2022-10-26T06:46:37;20.60;67.70
14415;DHT22;7307;50.852;4.314;2022-10-26T06:49:29;20.60;67.80
14415;DHT22;7307;50.852;4.314;2022-10-26T06:56:52;20.60;67.80
14415;DHT22;7307;50.852;4.314;2022-10-26T06:59:37;20.60;67.90
14415;DHT22;7307;50.852;4.314;2022-10-26T07:02:04;20.60;67.90
14415;DHT22;7307;50.852;4.314;2022-10-26T07:04:30;20.60;68.00
14415;DHT22;7307;50.852;4.314;2022-10-26T07:06:56;20.60;68.00
14415;DHT22;7307;50.852;4.314;2022-10-26T07:09:22;20.60;68.10
14415;DHT22;7307;50.852;4.314;2022-10-26T07:11:47;20.60;68.00
14415;DHT22;7307;50.852;4.314;2022-10-26T07:14:13;20.60;68.00
14415;DHT22;7307;50.852;4.314;2022-10-26T07:16:39;20.60;68.00
14415;DHT22;7307;50.852;4.314;2022-10-26T07:19:05;20.60;68.10
14415;DHT22;7307;50.852;4.314;2022-10-26T07:21:30;20.50;68.10
14415;DHT22;7307;50.852;4.314;2022-10-26T07:23:56;20.60;68.20
14415;DHT22;7307;50.852;4.314;2022-10-26T07:26:22;20.60;68.00
14415;DHT22;7307;50.852;4.314;2022-10-26T07:28:50;20.50;68.10
14415;DHT22;7307;50.852;4.314;2022-10-26T07:31:15;20.60;68.10
14415;DHT22;7307;50.852;4.314;2022-10-26T07:33:41;20.50;68.20
14415;DHT22;7307;50.852;4.314;2022-10-26T07:36:09;20.60;68.10
14415;DHT22;7307;50.852;4.314;2022-10-26T07:38:35;20.60;68.10
14415;DHT22;7307;50.852;4.314;2022-10-26T07:41:01;20.60;68.20
14415;DHT22;7307;50.852;4.314;2022-10-26T07:43:27;20.60;68.20
14415;DHT22;7307;50.852;4.314;2022-10-26T07:45:53;20.60;68.20
14415;DHT22;7307;50.852;4.314;2022-10-26T07:48:19;20.60;68.20
14415;DHT22;7307;50.852;4.314;2022-10-26T07:50:44;20.60;68.30
14415;DHT22;7307;50.852;4.314;2022-10-26T07:53:10;20.60;68.30
14415;DHT22;7307;50.852;4.314;2022-10-26T07:55:35;20.60;68.30
14415;DHT22;7307;50.852;4.314;2022-10-26T07:58:01;20.50;68.10
14415;DHT22;7307;50.852;4.314;2022-10-26T08:00:27;20.60;68.20
14415;DHT22;7307;50.852;4.314;2022-10-26T08:02:55;20.60;68.30
14415;DHT22;7307;50.852;4.314;2022-10-26T08:05:21;20.60;68.30
14415;DHT22;7307;50.852;4.314;2022-10-26T08:07:47;20.50;68.20
14415;DHT22;7307;50.852;4.314;2022-10-26T08:10:13;20.60;68.20
14415;DHT22;7307;50.852;4.314;2022-10-26T08:12:40;20.60;68.30
14415;DHT22;7307;50.852;4.314;2022-10-26T08:15:06;20.60;68.30
14415;DHT22;7307;50.852;4.314;2022-10-26T08:17:32;20.60;68.30
14415;DHT22;7307;50.852;4.314;2022-10-26T08:19:58;20.60;68.30
14415;DHT22;7307;50.852;4.314;2022-10-26T08:22:23;20.50;68.20
14415;DHT22;7307;50.852;4.314;2022-10-26T08:24:49;20.60;68.30
14415;DHT22;7307;50.852;4.314;2022-10-26T08:27:15;20.60;68.30
14415;DHT22;7307;50.852;4.314;2022-10-26T08:29:41;20.60;68.30
14415;DHT22;7307;50.852;4.314;2022-10-26T08:32:07;20.60;68.30
14415;DHT22;7307;50.852;4.314;2022-10-26T08:34:33;20.60;68.30
14415;DHT22;7307;50.852;4.314;2022-10-26T08:36:58;20.60;68.30
14415;DHT22;7307;50.852;4.314;2022-10-26T08:39:24;20.60;68.30
14415;DHT22;7307;50.852;4.314;2022-10-26T08:41:57;20.60;68.50
14415;DHT22;7307;50.852;4.314;2022-10-26T08:47:24;20.60;68.50
14415;DHT22;7307;50.852;4.314;2022-10-26T08:50:02;20.60;68.40
14415;DHT22;7307;50.852;4.314;2022-10-26T08:52:40;20.60;68.40
14415;DHT22;7307;50.852;4.314;2022-10-26T08:55:14;20.60;68.40
14415;DHT22;7307;50.852;4.314;2022-10-26T08:57:41;20.60;68.40
14415;DHT22;7307;50.852;4.314;2022-10-26T09:02:38;20.60;68.40
14415;DHT22;7307;50.852;4.314;2022-10-26T09:05:13;20.60;68.40
14415;DHT22;7307;50.852;4.314;2022-10-26T09:21:06;20.60;68.50
14415;DHT22;7307;50.852;4.314;2022-10-26T09:24:16;20.60;68.50
14415;DHT22;7307;50.852;4.314;2022-10-26T09:26:54;20.50;68.40
14415;DHT22;7307;50.852;4.314;2022-10-26T09:29:26;20.60;68.40
14415;DHT22;7307;50.852;4.314;2022-10-26T09:31:55;20.50;68.30
14415;DHT22;7307;50.852;4.314;2022-10-26T09:37:17;20.60;68.50
14415;DHT22;7307;50.852;4.314;2022-10-26T09:42:48;20.50;68.30
14415;DHT22;7307;50.852;4.314;2022-10-26T09:47:49;20.60;68.50
14415;DHT22;7307;50.852;4.314;2022-10-26T09:50:27;20.50;68.30
14415;DHT22;7307;50.852;4.314;2022-10-26T09:52:53;20.60;68.50
14415;DHT22;7307;50.852;4.314;2022-10-26T09:55:19;20.50;68.30
14415;DHT22;7307;50.852;4.314;2022-10-26T09:57:49;20.60;69.40
14415;DHT22;7307;50.852;4.314;2022-10-26T10:00:23;20.50;68.50
14415;DHT22;7307;50.852;4.314;2022-10-26T10:02:51;20.60;68.50
14415;DHT22;7307;50.852;4.314;2022-10-26T10:05:32;20.50;68.40
14415;DHT22;7307;50.852;4.314;2022-10-26T10:13:20;20.60;68.50
14415;DHT22;7307;50.852;4.314;2022-10-26T10:16:21;20.60;68.50
14415;DHT22;7307;50.852;4.314;2022-10-26T10:18:55;20.60;68.60
14415;DHT22;7307;50.852;4.314;2022-10-26T10:24:00;20.50;68.40
14415;DHT22;7307;50.852;4.314;2022-10-26T10:26:26;20.50;68.40
14415;DHT22;7307;50.852;4.314;2022-10-26T10:28:57;20.60;68.50
14415;DHT22;7307;50.852;4.314;2022-10-26T10:31:29;20.50;68.40
14415;DHT22;7307;50.852;4.314;2022-10-26T10:33:55;20.60;68.50
14415;DHT22;7307;50.852;4.314;2022-10-26T10:36:23;20.60;68.50
14415;DHT22;7307;50.852;4.314;2022-10-26T10:38:51;20.60;68.60
14415;DHT22;7307;50.852;4.314;2022-10-26T10:41:22;20.60;68.50
14415;DHT22;7307;50.852;4.314;2022-10-26T10:43:53;20.60;68.70
14415;DHT22;7307;50.852;4.314;2022-10-26T10:46:21;20.60;68.50
14415;DHT22;7307;50.852;4.314;2022-10-26T10:49:34;20.60;68.60
14415;DHT22;7307;50.852;4.314;2022-10-26T10:51:41;20.60;68.60
14415;DHT22;7307;50.852;4.314;2022-10-26T10:54:28;20.60;68.50
14415;DHT22;7307;50.852;4.314;2022-10-26T11:05:09;20.60;68.70
14415;DHT22;7307;50.852;4.314;2022-10-26T11:07:45;20.60;68.70
14415;DHT22;7307;50.852;4.314;2022-10-26T11:10:15;20.60;68.60
14415;DHT22;7307;50.852;4.314;2022-10-26T11:12:50;20.60;68.50
14415;DHT22;7307;50.852;4.314;2022-10-26T11:15:20;20.60;68.30
14415;DHT22;7307;50.852;4.314;2022-10-26T11:20:25;20.60;68.20
14415;DHT22;7307;50.852;4.314;2022-10-26T11:23:12;20.60;68.30
14415;DHT22;7307;50.852;4.314;2022-10-26T11:26:06;20.60;68.30
14415;DHT22;7307;50.852;4.314;2022-10-26T11:31:32;20.60;68.20
14415;DHT22;7307;50.852;4.314;2022-10-26T11:36:27;20.60;68.20
14415;DHT22;7307;50.852;4.314;2022-10-26T11:39:09;20.60;68.20
14415;DHT22;7307;50.852;4.314;2022-10-26T11:41:52;20.60;68.20
14415;DHT22;7307;50.852;4.314;2022-10-26T11:44:36;20.60;68.20
14415;DHT22;7307;50.852;4.314;2022-10-26T11:47:22;20.60;68.10
14415;DHT22;7307;50.852;4.314;2022-10-26T11:50:26;20.60;68.10
14415;DHT22;7307;50.852;4.314;2022-10-26T11:55:22;20.70;68.00
14415;DHT22;7307;50.852;4.314;2022-10-26T11:57:50;20.60;68.00
14415;DHT22;7307;50.852;4.314;2022-10-26T12:00:18;20.70;68.20
14415;DHT22;7307;50.852;4.314;2022-10-26T12:03:00;20.70;68.00
14415;DHT22;7307;50.852;4.314;2022-10-26T12:10:41;20.70;68.00
14415;DHT22;7307;50.852;4.314;2022-10-26T12:13:49;20.70;68.10
14415;DHT22;7307;50.852;4.314;2022-10-26T12:19:23;20.70;68.10
14415;DHT22;7307;50.852;4.314;2022-10-26T12:21:51;20.70;68.00
14415;DHT22;7307;50.852;4.314;2022-10-26T12:26:57;20.70;68.00
14415;DHT22;7307;50.852;4.314;2022-10-26T12:29:27;20.70;68.00
14415;DHT22;7307;50.852;4.314;2022-10-26T12:31:53;20.70;68.20
14415;DHT22;7307;50.852;4.314;2022-10-26T12:34:22;20.70;68.30
14415;DHT22;7307;50.852;4.314;2022-10-26T12:53:06;20.80;67.90
14415;DHT22;7307;50.852;4.314;2022-10-26T13:09:23;20.80;67.60
14415;DHT22;7307;50.852;4.314;2022-10-26T13:11:54;20.80;67.70
14415;DHT22;7307;50.852;4.314;2022-10-26T13:14:22;20.80;67.60
14415;DHT22;7307;50.852;4.314;2022-10-26T13:16:48;20.80;67.60
14415;DHT22;7307;50.852;4.314;2022-10-26T13:19:43;20.80;67.60
14415;DHT22;7307;50.852;4.314;2022-10-26T13:22:29;20.80;67.80
14415;DHT22;7307;50.852;4.314;2022-10-26T13:25:01;20.80;67.60
14415;DHT22;7307;50.852;4.314;2022-10-26T13:32:29;20.80;67.70
14415;DHT22;7307;50.852;4.314;2022-10-26T13:34:56;20.80;67.70
14415;DHT22;7307;50.852;4.314;2022-10-26T13:37:26;20.80;67.70
14415;DHT22;7307;50.852;4.314;2022-10-26T13:39:53;20.80;67.70
14415;DHT22;7307;50.852;4.314;2022-10-26T13:42:25;20.80;67.80
14415;DHT22;7307;50.852;4.314;2022-10-26T13:45:05;20.80;67.80
14415;DHT22;7307;50.852;4.314;2022-10-26T13:50:14;20.80;67.70
14415;DHT22;7307;50.852;4.314;2022-10-26T13:52:43;20.80;67.70
14415;DHT22;7307;50.852;4.314;2022-10-26T13:57:38;20.80;67.80
14415;DHT22;7307;50.852;4.314;2022-10-26T14:00:15;20.80;67.80
14415;DHT22;7307;50.852;4.314;2022-10-26T14:02:42;20.80;67.80
14415;DHT22;7307;50.852;4.314;2022-10-26T14:05:10;20.80;67.90
14415;DHT22;7307;50.852;4.314;2022-10-26T14:10:32;20.80;67.80
14415;DHT22;7307;50.852;4.314;2022-10-26T14:12:59;20.80;67.80
14415;DHT22;7307;50.852;4.314;2022-10-26T14:15:27;20.80;67.70
14415;DHT22;7307;50.852;4.314;2022-10-26T14:17:55;20.80;67.80
14415;DHT22;7307;50.852;4.314;2022-10-26T14:20:23;20.80;67.80
14415;DHT22;7307;50.852;4.314;2022-10-26T14:22:51;20.80;67.80
14415;DHT22;7307;50.852;4.314;2022-10-26T14:25:25;20.80;67.80
14415;DHT22;7307;50.852;4.314;2022-10-26T14:27:51;20.80;67.80
14415;DHT22;7307;50.852;4.314;2022-10-26T14:32:48;20.80;67.80
14415;DHT22;7307;50.852;4.314;2022-10-26T14:35:14;20.80;67.80
14415;DHT22;7307;50.852;4.314;2022-10-26T14:38:01;20.80;67.80
14415;DHT22;7307;50.852;4.314;2022-10-26T14:40:32;20.80;67.80
14415;DHT22;7307;50.852;4.314;2022-10-26T14:43:00;20.80;67.80
14415;DHT22;7307;50.852;4.314;2022-10-26T14:47:52;20.80;67.80
14415;DHT22;7307;50.852;4.314;2022-10-26T14:50:22;20.80;67.90
14415;DHT22;7307;50.852;4.314;2022-10-26T14:52:51;20.80;67.80
14415;DHT22;7307;50.852;4.314;2022-10-26T14:55:18;20.80;67.80
14415;DHT22;7307;50.852;4.314;2022-10-26T14:57:46;20.80;67.80
14415;DHT22;7307;50.852;4.314;2022-10-26T15:00:18;20.80;67.80
14415;DHT22;7307;50.852;4.314;2022-10-26T15:02:49;20.80;67.80
14415;DHT22;7307;50.852;4.314;2022-10-26T15:07:43;20.80;67.80
14415;DHT22;7307;50.852;4.314;2022-10-26T15:15:35;20.80;68.00
14415;DHT22;7307;50.852;4.314;2022-10-26T15:18:01;20.80;67.80
14415;DHT22;7307;50.852;4.314;2022-10-26T15:20:28;20.80;67.90
14415;DHT22;7307;50.852;4.314;2022-10-26T15:25:23;20.80;67.80
14415;DHT22;7307;50.852;4.314;2022-10-26T15:27:50;20.80;67.80
14415;DHT22;7307;50.852;4.314;2022-10-26T15:30:17;20.80;67.80
14415;DHT22;7307;50.852;4.314;2022-10-26T15:32:44;20.80;67.80
14415;DHT22;7307;50.852;4.314;2022-10-26T15:35:14;20.80;67.80
14415;DHT22;7307;50.852;4.314;2022-10-26T15:37:40;20.80;67.80
14415;DHT22;7307;50.852;4.314;2022-10-26T15:40:06;20.80;67.80
14415;DHT22;7307;50.852;4.314;2022-10-26T15:42:35;20.80;68.00
14415;DHT22;7307;50.852;4.314;2022-10-26T15:45:03;20.80;68.70
14415;DHT22;7307;50.852;4.314;2022-10-26T15:47:32;20.80;68.30
14415;DHT22;7307;50.852;4.314;2022-10-26T15:49:58;20.80;68.50
14415;DHT22;7307;50.852;4.314;2022-10-26T15:52:24;20.80;68.70
14415;DHT22;7307;50.852;4.314;2022-10-26T15:54:49;20.80;68.70
14415;DHT22;7307;50.852;4.314;2022-10-26T15:57:15;20.80;68.50
14415;DHT22;7307;50.852;4.314;2022-10-26T15:59:41;20.80;68.40
14415;DHT22;7307;50.852;4.314;2022-10-26T16:02:16;20.80;68.40
14415;DHT22;7307;50.852;4.314;2022-10-26T16:04:42;20.80;68.30
14415;DHT22;7307;50.852;4.314;2022-10-26T16:07:12;20.80;68.20
14415;DHT22;7307;50.852;4.314;2022-10-26T16:09:39;20.80;68.20
14415;DHT22;7307;50.852;4.314;2022-10-26T16:12:07;20.80;68.10
14415;DHT22;7307;50.852;4.314;2022-10-26T16:14:32;20.80;68.10
14415;DHT22;7307;50.852;4.314;2022-10-26T16:16:58;20.80;68.00
14415;DHT22;7307;50.852;4.314;2022-10-26T16:19:23;20.80;68.00
14415;DHT22;7307;50.852;4.314;2022-10-26T16:21:50;20.80;68.00
14415;DHT22;7307;50.852;4.314;2022-10-26T16:24:16;20.90;68.10
14415;DHT22;7307;50.852;4.314;2022-10-26T16:26:42;20.80;68.00
14415;DHT22;7307;50.852;4.314;2022-10-26T16:29:07;20.80;68.00
14415;DHT22;7307;50.852;4.314;2022-10-26T16:31:33;20.80;68.00
14415;DHT22;7307;50.852;4.314;2022-10-26T16:33:58;20.80;68.00
14415;DHT22;7307;50.852;4.314;2022-10-26T16:36:24;20.80;68.00
14415;DHT22;7307;50.852;4.314;2022-10-26T16:38:50;20.80;68.00
14415;DHT22;7307;50.852;4.314;2022-10-26T16:41:15;20.90;68.00
14415;DHT22;7307;50.852;4.314;2022-10-26T16:43:44;20.80;68.70
14415;DHT22;7307;50.852;4.314;2022-10-26T16:46:15;20.80;67.90
14415;DHT22;7307;50.852;4.314;2022-10-26T16:48:42;20.80;68.00
14415;DHT22;7307;50.852;4.314;2022-10-26T16:51:10;20.90;68.00
14415;DHT22;7307;50.852;4.314;2022-10-26T16:53:36;20.80;67.90
14415;DHT22;7307;50.852;4.314;2022-10-26T16:56:10;20.80;67.80
14415;DHT22;7307;50.852;4.314;2022-10-26T16:58:37;20.90;67.90
14415;DHT22;7307;50.852;4.314;2022-10-26T17:01:03;20.80;67.90
14415;DHT22;7307;50.852;4.314;2022-10-26T17:03:29;20.80;67.90
14415;DHT22;7307;50.852;4.314;2022-10-26T17:06:02;20.80;67.80
14415;DHT22;7307;50.852;4.314;2022-10-26T17:08:28;20.90;67.90
14415;DHT22;7307;50.852;4.314;2022-10-26T17:11:07;20.90;67.90
14415;DHT22;7307;50.852;4.314;2022-10-26T17:13:37;20.80;67.80
14415;DHT22;7307;50.852;4.314;2022-10-26T17:16:05;20.90;68.00
14415;DHT22;7307;50.852;4.314;2022-10-26T17:18:31;20.90;67.90
14415;DHT22;7307;50.852;4.314;2022-10-26T17:20:57;20.90;67.90
14415;DHT22;7307;50.852;4.314;2022-10-26T17:23:24;20.80;68.60
14415;DHT22;7307;50.852;4.314;2022-10-26T17:25:49;20.80;67.80
14415;DHT22;7307;50.852;4.314;2022-10-26T17:28:15;20.80;67.80
14415;DHT22;7307;50.852;4.314;2022-10-26T17:30:41;20.80;67.80
14415;DHT22;7307;50.852;4.314;2022-10-26T17:33:07;20.90;68.00
14415;DHT22;7307;50.852;4.314;2022-10-26T17:35:33;20.80;67.80
14415;DHT22;7307;50.852;4.314;2022-10-26T17:37:59;20.80;67.80
14415;DHT22;7307;50.852;4.314;2022-10-26T17:40:25;20.80;68.10
14415;DHT22;7307;50.852;4.314;2022-10-26T17:42:50;20.80;68.20
14415;DHT22;7307;50.852;4.314;2022-10-26T17:45:16;20.80;68.00
14415;DHT22;7307;50.852;4.314;2022-10-26T17:47:42;20.80;68.00
14415;DHT22;7307;50.852;4.314;2022-10-26T17:50:08;20.80;68.00
14415;DHT22;7307;50.852;4.314;2022-10-26T17:52:34;20.80;68.10
14415;DHT22;7307;50.852;4.314;2022-10-26T17:55:00;20.80;68.30
14415;DHT22;7307;50.852;4.314;2022-10-26T17:57:26;20.80;68.40
14415;DHT22;7307;50.852;4.314;2022-10-26T17:59:51;20.80;68.30
14415;DHT22;7307;50.852;4.314;2022-10-26T18:02:17;20.80;68.20
14415;DHT22;7307;50.852;4.314;2022-10-26T18:04:42;20.90;68.20
14415;DHT22;7307;50.852;4.314;2022-10-26T18:07:10;20.80;68.20
14415;DHT22;7307;50.852;4.314;2022-10-26T18:09:36;20.80;68.20
14415;DHT22;7307;50.852;4.314;2022-10-26T18:12:01;20.80;68.20
14415;DHT22;7307;50.852;4.314;2022-10-26T18:14:27;20.80;68.40
14415;DHT22;7307;50.852;4.314;2022-10-26T18:16:53;20.80;69.20
14415;DHT22;7307;50.852;4.314;2022-10-26T18:19:51;20.90;69.30
14415;DHT22;7307;50.852;4.314;2022-10-26T18:22:19;20.90;69.60
14415;DHT22;7307;50.852;4.314;2022-10-26T18:24:45;20.90;70.00
14415;DHT22;7307;50.852;4.314;2022-10-26T18:27:10;20.90;70.50
14415;DHT22;7307;50.852;4.314;2022-10-26T18:29:36;20.90;70.70
14415;DHT22;7307;50.852;4.314;2022-10-26T18:32:02;20.90;70.70
14415;DHT22;7307;50.852;4.314;2022-10-26T18:34:27;20.90;70.80
14415;DHT22;7307;50.852;4.314;2022-10-26T18:36:53;20.90;70.80
14415;DHT22;7307;50.852;4.314;2022-10-26T18:39:19;20.90;70.80